Terminal Aerodrome Forecast
Issued by NWS

Home | Current Version | Previous Version | Text Only | Print | Product List | Glossary On
Versions: 1 2 3 4 5 6 7 8 9 10 11 12 13 14 15 16 17 18 19
000
FTUS46 KMTR 222300 RRA
TAFSTS
TAF
KSTS 222345Z 2300/2324 17009KT P6SM FEW060 SCT250
     FM230300 17005KT P6SM SKC
     FM230600 00000KT P6SM FEW008
     FM231800 19007KT P6SM SKC=

USA.gov is the U.S. government's official web portal to all federal, state and local government web resources and services.